• Join FlightAware (Why Join?)
  • Login
  • US Flag 
07:12AM EST


 

Airport Tracker/Info


-or-


 

Live Flight TrackerFlight Track Log ✈ SKW6345 ✈ 19-Jun-2013 ✈ KBZN - KSFO

Flight Track Log - Related Links

Times and Time Zones

All times are in EDT time to prevent confusion due to time zone crossing. See the SKW6345 flight status page for this flight to view local times or setup timezone preferences in your user account.

Time Position Orientation Groundspeed Altitude Reporting Facility
EDT Latitude Longitude Course Direction KTS MPH feet Rate Location/Type
01:55PM 45.7649 -111.7753 288° West  Level FlightAware Approximate
01:56PM 45.7979 -111.9240 288° West  Level FlightAware Approximate
01:56PM 45.7797 -111.3028 233° Southwest 226 260 9,600  Level Salt Lake Center
01:57PM 45.8341 -112.0712 283° West  Level FlightAware Approximate
01:58PM 45.8221 -112.2085 226° Southwest  Level FlightAware Approximate
01:58PM 45.7439 -111.3867 239° Southwest 238 274 12,000  Level Salt Lake Center
01:59PM 45.7579 -112.3344 234° Southwest  Level FlightAware Approximate
01:59PM 45.7303 -111.4958 260° West 272 313 14,000  Level Salt Lake Center
02:00PM 45.6945 -112.4610 235° Southwest  Level FlightAware Approximate
02:00PM 45.6956 -111.5969 244° Southwest 295 339 15,800  Level Salt Lake Center
02:01PM 45.6313 -112.5878 235° Southwest  Level FlightAware Approximate
02:01PM 45.6375 -111.6900 228° Southwest 311 358 17,100  Level Salt Lake Center
02:02PM 45.5611 -111.8047 226° Southwest 331 381 19,500 1,440 Climbing Salt Lake Center
02:03PM 45.4939 -111.9047 226° Southwest 346 398 20,100 1,320 Climbing Salt Lake Center
02:04PM 45.4258 -112.0067 226° Southwest 353 406 22,300 1,800 Climbing Salt Lake Center
02:05PM 45.3550 -112.1131 227° Southwest 351 404 23,900 1,380 Climbing Salt Lake Center
02:06PM 45.2911 -112.2086 226° Southwest 350 403 25,200 1,200 Climbing Salt Lake Center
02:07PM 45.2158 -112.3189 226° Southwest 350 403 26,500 960 Climbing Salt Lake Center
02:08PM 45.1494 -112.4167 226° Southwest 356 410 27,300 780 Climbing Salt Lake Center
02:09PM 45.0694 -112.5347 226° Southwest 371 427 28,200 840 Climbing Salt Lake Center
02:10PM 44.9986 -112.6392 226° Southwest 381 438 29,100 960 Climbing Salt Lake Center
02:11PM 44.9169 -112.7564 225° Southwest 377 434 30,200 960 Climbing Salt Lake Center
02:12PM 44.8497 -112.8539 226° Southwest 368 423 31,100 780 Climbing Salt Lake Center
02:13PM 44.7717 -112.9683 226° Southwest 364 419 31,900 420 Climbing Salt Lake Center
02:14PM 44.7025 -113.0658 225° Southwest 367 422 32,000  Climbing Salt Lake Center
02:15PM 44.6186 -113.1872 226° Southwest 383 441 32,000  Level Salt Lake Center
02:16PM 44.5458 -113.2925 226° Southwest 391 450 32,000 120 Level Salt Lake Center
02:17PM 44.4561 -113.4186 225° Southwest 403 464 32,300 480 Climbing Salt Lake Center
02:18PM 44.3817 -113.5242 225° Southwest 401 461 33,100 780 Climbing Salt Lake Center
02:19PM 44.2972 -113.6453 226° Southwest 393 452 34,000 420 Climbing Salt Lake Center
02:20PM 44.2236 -113.7464 225° Southwest 389 448 34,000  Level Salt Lake Center
02:21PM 44.1378 -113.8686 226° Southwest 394 453 34,000  Level Salt Lake Center
02:22PM 44.0619 -113.9761 226° Southwest 405 466 34,000  Level Salt Lake Center
02:23PM 43.9742 -114.0964 225° Southwest 407 468 34,000  Level Salt Lake Center
02:24PM 43.8917 -114.2122 225° Southwest 406 467 34,000  Level Salt Lake Center
02:25PM 43.8139 -114.3192 225° Southwest 410 472 34,000  Level Salt Lake Center
02:26PM 43.7297 -114.4358 225° Southwest 407 468 34,000  Level Salt Lake Center
02:28PM 43.6506 -114.5381 223° Southwest 406 467 34,000  Level Salt Lake Center
02:29PM 43.5611 -114.6658 226° Southwest 409 471 34,000  Level Salt Lake Center
02:30PM 43.4761 -114.7783 224° Southwest 409 471 34,000  Level Salt Lake Center
02:31PM 43.3922 -114.8922 225° Southwest 404 465 34,000  Level Salt Lake Center
02:32PM 43.3078 -115.0069 225° Southwest 407 468 34,000  Level Salt Lake Center
02:33PM 43.2300 -115.1100 224° Southwest 404 465 34,000  Level Salt Lake Center
02:34PM 43.1453 -115.2219 224° Southwest 405 466 34,000  Level Salt Lake Center
02:35PM 43.0600 -115.3347 224° Southwest 404 465 34,000  Level Salt Lake Center
02:36PM 42.9744 -115.4481 224° Southwest 411 473 34,000  Level Salt Lake Center
02:37PM 42.8875 -115.5628 224° Southwest 415 478 34,000  Level Salt Lake Center
02:38PM 42.8061 -115.6697 224° Southwest 418 481 34,000  Level Salt Lake Center
02:39PM 42.7178 -115.7856 224° Southwest 420 483 34,000  Level Salt Lake Center
02:40PM 42.6297 -115.9003 224° Southwest 420 483 34,000  Level Salt Lake Center
02:41PM 42.5414 -116.0136 223° Southwest 420 483 34,000  Level Salt Lake Center
02:42PM 42.4531 -116.1272 224° Southwest 414 476 34,000  Level Salt Lake Center
02:43PM 42.3722 -116.2306 223° Southwest 416 479 34,000  Level Salt Lake Center
02:44PM 42.2833 -116.3444 223° Southwest 419 482 34,000  Level Salt Lake Center
02:45PM 42.1947 -116.4575 223° Southwest 419 482 34,000  Level Salt Lake Center
02:46PM 42.1061 -116.5700 223° Southwest 420 483 34,000  Level Salt Lake Center
02:47PM 42.0161 -116.6850 224° Southwest 422 486 34,000  Level Salt Lake Center
02:48PM 41.9344 -116.7875 223° Southwest 423 487 34,000  Level Salt Lake Center
02:49PM 41.8528 -116.8900 223° Southwest 419 482 34,000  Level Salt Lake Center
02:50PM 41.7572 -117.0089 223° Southwest 419 482 34,000  Level Salt Lake Center
02:51PM 41.6753 -117.1117 223° Southwest 422 486 34,000  Level Salt Lake Center
02:52PM 41.5789 -117.2319 223° Southwest 424 488 34,000  Level Salt Lake Center
02:53PM 41.4964 -117.3317 222° Southwest 421 484 34,000  Level Salt Lake Center
02:54PM 41.4003 -117.4511 223° Southwest 422 486 34,000  Level Salt Lake Center
02:55PM 41.3181 -117.5522 223° Southwest 422 486 34,000  Level Salt Lake Center
02:56PM 41.2231 -117.6683 223° Southwest 418 481 34,000  Level Salt Lake Center
02:57PM 41.1419 -117.7664 222° Southwest 415 478 34,000  Level Salt Lake Center
02:58PM 41.0611 -117.8647 223° Southwest 413 475 34,000  Level Salt Lake Center
02:59PM 40.9664 -117.9789 222° Southwest 413 475 34,000  Level Salt Lake Center
03:01PM 40.8864 -118.0758 223° Southwest 410 472 34,000  Level Salt Lake Center
03:02PM 40.8019 -118.2000 228° Southwest 411 473 34,000  Level Salt Lake Center
03:03PM 40.7511 -118.3214 241° Southwest 399 459 34,000  Level Salt Lake Center
03:04PM 40.6894 -118.4628 240° Southwest 398 458 34,000  Level Salt Lake Center
03:05PM 40.6375 -118.5842 241° Southwest 398 458 34,000  Level Salt Lake Center
03:06PM 40.5764 -118.7253 240° Southwest 398 458 34,000  Level Salt Lake Center
03:07PM 40.5242 -118.8447 240° Southwest 395 455 34,000  Level Salt Lake Center
03:08PM 40.4625 -118.9850 240° Southwest 398 458 34,000  Level Salt Lake Center
03:09PM 40.4081 -119.1122 241° Southwest 394 453 34,000  Level Salt Lake Center
03:10PM 40.3533 -119.2356 240° Southwest 393 452 34,000  Level Salt Lake Center
03:11PM 40.2994 -119.3600 240° Southwest 394 453 34,000  Level Salt Lake Center
03:12PM 40.2447 -119.4844 240° Southwest 396 456 34,000  Level Salt Lake Center
03:13PM 40.1886 -119.6086 239° Southwest 398 458 34,000  Level Salt Lake Center
03:14PM 40.1231 -119.7578 240° Southwest 397 457 34,000  Level Salt Lake Center
03:15PM 40.0664 -119.8831 239° Southwest 401 461 34,000  Level Salt Lake Center
03:16PM 40.0003 -120.0328 240° Southwest 398 458 34,000  Level Oakland Center
03:17PM 39.9361 -120.1725 239° Southwest 401 461 34,000  Level Oakland Center
03:18PM 39.8783 -120.3000 239° Southwest 407 468 34,000  Level Oakland Center
03:19PM 39.8208 -120.4283 240° Southwest 411 473 34,000  Level Oakland Center
03:20PM 39.7628 -120.5564 239° Southwest 411 473 34,000  Level Oakland Center
03:21PM 39.7036 -120.6828 239° Southwest 410 472 34,000  Level Oakland Center
03:22PM 39.6439 -120.8100 239° Southwest 413 475 34,000  Level Oakland Center
03:23PM 39.5711 -120.9600 238° Southwest 409 471 34,000  Level Oakland Center
03:24PM 39.4908 -121.0667 226° Southwest 415 478 34,000  Level Oakland Center
03:26PM 39.4086 -121.1753 226° Southwest 420 483 34,000  Level Oakland Center
03:27PM 39.3286 -121.2800 225° Southwest 416 479 34,000  Level Oakland Center
03:28PM 39.2494 -121.3811 225° Southwest 407 468 34,000  Level Oakland Center
03:29PM 39.1725 -121.4822 226° Southwest 400 460 34,000  Level Oakland Center
03:30PM 39.0958 -121.5814 225° Southwest 395 455 34,000  Level Oakland Center
03:31PM 39.0233 -121.6781 226° Southwest 383 441 34,000  Level Oakland Center
03:32PM 38.9333 -121.7942 225° Southwest 383 441 34,000  Level Oakland Center
03:33PM 38.8561 -121.8908 224° Southwest 388 447 34,000  Level Oakland Center
03:34PM 38.7814 -121.9858 225° Southwest 385 443 34,000 -360 Level Oakland Center
03:35PM 38.7075 -122.0800 225° Southwest 379 436 33,300 -1,620 Descending Oakland Center
03:36PM 38.6325 -122.1747 225° Southwest 379 436 30,800 -2,460 Descending Oakland Center
03:37PM 38.5589 -122.2686 225° Southwest 375 432 28,300 -2,460 Descending Oakland Center
03:38PM 38.4825 -122.3664 225° Southwest 385 443 25,800 -2,520 Descending Oakland Center
03:39PM 38.3892 -122.4853 225° Southwest 394 453 23,200 -2,520 Descending Oakland Center
03:40PM 38.3108 -122.5836 225° Southwest 396 456 20,700 -2,460 Descending Oakland Center
03:41PM 38.2319 -122.6819 224° Southwest 399 459 18,200 -2,340 Descending Oakland Center
03:42PM 38.1617 -122.7703 225° Southwest 361 415 16,000 -2,340 Descending Oakland Center
03:43PM 38.0875 -122.8344 214° Southwest 338 389 13,500 -2,400 Descending Oakland Center
03:44PM 37.9989 -122.7806 154° Southeast 371 427 11,200 -1,260 Descending Oakland Center
03:45PM 37.9078 -122.6839 140° Southeast 362 417 11,000 -120 Descending Oakland Center
03:46PM 37.8375 -122.6108 141° Southeast 344 396 11,000  Level Oakland Center
03:47PM 37.7667 -122.5333 139° Southeast 317 365 11,000 -60 Level Northern Cal TRACON
03:48PM 37.7000 -122.4667 142° Southeast 282 325 10,900  Descending Northern Cal TRACON
03:49PM 37.6500 -122.4000 133° Southeast 267 307 11,000  Climbing Northern Cal TRACON
03:50PM 37.5833 -122.3500 149° Southeast 267 307 10,900 -1,020 Descending Northern Cal TRACON
03:51PM 37.5333 -122.3167 152° Southeast 259 298 9,100 -1,860 Descending Northern Cal TRACON
03:52PM 37.4667 -122.2667 149° Southeast 256 295 7,200 -1,860 Descending Northern Cal TRACON
03:53PM 37.4667 -122.1833 90° East 240 276 5,400 -1,620 Descending Northern Cal TRACON
03:54PM 37.5167 -122.1667 15° North 210 242 4,000 -1,440 Descending Northern Cal TRACON